sensor_id;sensor_type;location;lat;lon;timestamp;P1;durP1;ratioP1;P2;durP2;ratioP2
41309;SDS011;27057;51.438;-0.010;2023-03-01T00:01:39;24.13;;;10.57;;
41309;SDS011;27057;51.438;-0.010;2023-03-01T00:04:07;24.48;;;12.85;;
41309;SDS011;27057;51.438;-0.010;2023-03-01T00:06:34;25.00;;;11.13;;
41309;SDS011;27057;51.438;-0.010;2023-03-01T00:09:02;20.52;;;11.55;;
41309;SDS011;27057;51.438;-0.010;2023-03-01T00:11:31;30.80;;;13.25;;
41309;SDS011;27057;51.438;-0.010;2023-03-01T00:14:00;20.15;;;11.88;;
41309;SDS011;27057;51.438;-0.010;2023-03-01T00:16:30;20.60;;;11.93;;
41309;SDS011;27057;51.438;-0.010;2023-03-01T00:19:00;25.98;;;12.38;;
41309;SDS011;27057;51.438;-0.010;2023-03-01T00:21:28;22.30;;;12.55;;
41309;SDS011;27057;51.438;-0.010;2023-03-01T00:23:55;25.73;;;11.63;;
41309;SDS011;27057;51.438;-0.010;2023-03-01T00:26:24;19.33;;;11.63;;
41309;SDS011;27057;51.438;-0.010;2023-03-01T00:28:53;28.33;;;12.07;;
41309;SDS011;27057;51.438;-0.010;2023-03-01T00:31:25;25.73;;;12.10;;
41309;SDS011;27057;51.438;-0.010;2023-03-01T00:33:58;26.05;;;13.18;;
41309;SDS011;27057;51.438;-0.010;2023-03-01T00:36:28;26.95;;;13.63;;
41309;SDS011;27057;51.438;-0.010;2023-03-01T00:39:01;30.25;;;13.02;;
41309;SDS011;27057;51.438;-0.010;2023-03-01T00:41:30;26.38;;;12.13;;
41309;SDS011;27057;51.438;-0.010;2023-03-01T00:43:57;23.13;;;12.23;;
41309;SDS011;27057;51.438;-0.010;2023-03-01T00:46:25;29.80;;;13.18;;
41309;SDS011;27057;51.438;-0.010;2023-03-01T00:48:55;19.77;;;11.20;;
41309;SDS011;27057;51.438;-0.010;2023-03-01T00:51:24;23.52;;;12.02;;
41309;SDS011;27057;51.438;-0.010;2023-03-01T00:53:57;23.40;;;11.85;;
41309;SDS011;27057;51.438;-0.010;2023-03-01T00:56:27;23.10;;;11.30;;
41309;SDS011;27057;51.438;-0.010;2023-03-01T00:58:57;21.90;;;11.25;;
41309;SDS011;27057;51.438;-0.010;2023-03-01T01:01:26;26.55;;;11.93;;
41309;SDS011;27057;51.438;-0.010;2023-03-01T01:03:59;22.95;;;11.15;;
41309;SDS011;27057;51.438;-0.010;2023-03-01T01:06:29;23.20;;;11.70;;
41309;SDS011;27057;51.438;-0.010;2023-03-01T01:09:02;21.77;;;10.73;;
41309;SDS011;27057;51.438;-0.010;2023-03-01T01:11:32;14.95;;;9.38;;
41309;SDS011;27057;51.438;-0.010;2023-03-01T01:14:01;17.75;;;10.57;;
41309;SDS011;27057;51.438;-0.010;2023-03-01T01:16:29;21.75;;;11.55;;
41309;SDS011;27057;51.438;-0.010;2023-03-01T01:18:58;22.27;;;11.32;;
41309;SDS011;27057;51.438;-0.010;2023-03-01T01:21:26;18.38;;;12.15;;
41309;SDS011;27057;51.438;-0.010;2023-03-01T01:23:54;21.70;;;11.88;;
41309;SDS011;27057;51.438;-0.010;2023-03-01T01:26:23;25.10;;;11.30;;
41309;SDS011;27057;51.438;-0.010;2023-03-01T01:28:52;19.67;;;11.90;;
41309;SDS011;27057;51.438;-0.010;2023-03-01T01:31:21;23.27;;;12.30;;
41309;SDS011;27057;51.438;-0.010;2023-03-01T01:33:51;27.98;;;12.20;;
41309;SDS011;27057;51.438;-0.010;2023-03-01T01:36:19;24.33;;;11.48;;
41309;SDS011;27057;51.438;-0.010;2023-03-01T01:38:47;28.10;;;11.55;;
41309;SDS011;27057;51.438;-0.010;2023-03-01T01:41:15;22.30;;;11.25;;
41309;SDS011;27057;51.438;-0.010;2023-03-01T01:43:44;21.33;;;10.68;;
41309;SDS011;27057;51.438;-0.010;2023-03-01T01:46:33;25.00;;;10.93;;
41309;SDS011;27057;51.438;-0.010;2023-03-01T01:49:10;21.63;;;10.82;;
41309;SDS011;27057;51.438;-0.010;2023-03-01T01:51:51;22.38;;;11.00;;
41309;SDS011;27057;51.438;-0.010;2023-03-01T01:54:31;21.52;;;11.13;;
41309;SDS011;27057;51.438;-0.010;2023-03-01T01:57:07;24.05;;;10.73;;
41309;SDS011;27057;51.438;-0.010;2023-03-01T01:59:39;32.17;;;11.35;;
41309;SDS011;27057;51.438;-0.010;2023-03-01T02:02:10;20.42;;;10.27;;
41309;SDS011;27057;51.438;-0.010;2023-03-01T02:04:38;19.48;;;9.00;;
41309;SDS011;27057;51.438;-0.010;2023-03-01T02:07:09;17.95;;;8.80;;
41309;SDS011;27057;51.438;-0.010;2023-03-01T02:09:41;13.60;;;6.38;;
41309;SDS011;27057;51.438;-0.010;2023-03-01T02:12:12;12.80;;;5.13;;
41309;SDS011;27057;51.438;-0.010;2023-03-01T02:14:44;8.68;;;4.95;;
41309;SDS011;27057;51.438;-0.010;2023-03-01T02:17:12;15.05;;;4.60;;
41309;SDS011;27057;51.438;-0.010;2023-03-01T02:19:55;12.32;;;4.78;;
41309;SDS011;27057;51.438;-0.010;2023-03-01T02:22:54;9.77;;;4.53;;
41309;SDS011;27057;51.438;-0.010;2023-03-01T02:31:03;8.23;;;4.20;;
41309;SDS011;27057;51.438;-0.010;2023-03-01T02:33:51;11.90;;;3.60;;
41309;SDS011;27057;51.438;-0.010;2023-03-01T02:36:30;9.38;;;3.75;;
41309;SDS011;27057;51.438;-0.010;2023-03-01T02:39:02;8.88;;;4.03;;
41309;SDS011;27057;51.438;-0.010;2023-03-01T02:41:36;10.82;;;4.03;;
41309;SDS011;27057;51.438;-0.010;2023-03-01T02:44:04;12.05;;;4.13;;
41309;SDS011;27057;51.438;-0.010;2023-03-01T02:46:32;7.45;;;3.60;;
41309;SDS011;27057;51.438;-0.010;2023-03-01T02:49:00;11.82;;;3.78;;
41309;SDS011;27057;51.438;-0.010;2023-03-01T02:51:34;9.20;;;4.05;;
41309;SDS011;27057;51.438;-0.010;2023-03-01T02:56:44;6.60;;;3.47;;
41309;SDS011;27057;51.438;-0.010;2023-03-01T02:59:18;11.90;;;3.47;;
41309;SDS011;27057;51.438;-0.010;2023-03-01T03:01:48;10.70;;;3.05;;
41309;SDS011;27057;51.438;-0.010;2023-03-01T03:04:16;14.43;;;3.05;;
41309;SDS011;27057;51.438;-0.010;2023-03-01T03:06:48;17.08;;;3.60;;
41309;SDS011;27057;51.438;-0.010;2023-03-01T03:09:17;7.30;;;2.80;;
41309;SDS011;27057;51.438;-0.010;2023-03-01T03:11:46;5.93;;;3.55;;
41309;SDS011;27057;51.438;-0.010;2023-03-01T03:14:14;7.53;;;3.30;;
41309;SDS011;27057;51.438;-0.010;2023-03-01T03:16:46;9.40;;;3.55;;
41309;SDS011;27057;51.438;-0.010;2023-03-01T03:19:16;8.80;;;3.03;;
41309;SDS011;27057;51.438;-0.010;2023-03-01T03:21:44;9.02;;;3.70;;
41309;SDS011;27057;51.438;-0.010;2023-03-01T03:24:12;5.63;;;3.00;;
41309;SDS011;27057;51.438;-0.010;2023-03-01T03:26:39;8.98;;;3.00;;
41309;SDS011;27057;51.438;-0.010;2023-03-01T03:29:07;11.13;;;3.10;;
41309;SDS011;27057;51.438;-0.010;2023-03-01T03:31:34;8.77;;;2.83;;
41309;SDS011;27057;51.438;-0.010;2023-03-01T03:34:02;5.90;;;2.92;;
41309;SDS011;27057;51.438;-0.010;2023-03-01T03:36:29;7.22;;;2.40;;
41309;SDS011;27057;51.438;-0.010;2023-03-01T03:38:57;6.90;;;3.05;;
41309;SDS011;27057;51.438;-0.010;2023-03-01T03:41:24;5.00;;;3.33;;
41309;SDS011;27057;51.438;-0.010;2023-03-01T03:43:51;13.98;;;3.33;;
41309;SDS011;27057;51.438;-0.010;2023-03-01T03:46:19;8.77;;;3.10;;
41309;SDS011;27057;51.438;-0.010;2023-03-01T03:48:46;6.35;;;3.05;;
41309;SDS011;27057;51.438;-0.010;2023-03-01T03:51:15;8.05;;;3.65;;
41309;SDS011;27057;51.438;-0.010;2023-03-01T03:53:44;7.45;;;2.40;;
41309;SDS011;27057;51.438;-0.010;2023-03-01T03:56:12;4.95;;;2.78;;
41309;SDS011;27057;51.438;-0.010;2023-03-01T03:58:39;6.13;;;3.08;;
41309;SDS011;27057;51.438;-0.010;2023-03-01T04:01:07;3.92;;;2.65;;
41309;SDS011;27057;51.438;-0.010;2023-03-01T04:03:35;9.68;;;3.20;;
41309;SDS011;27057;51.438;-0.010;2023-03-01T04:06:02;13.93;;;3.03;;
41309;SDS011;27057;51.438;-0.010;2023-03-01T04:08:31;6.53;;;2.70;;
41309;SDS011;27057;51.438;-0.010;2023-03-01T04:11:02;5.38;;;2.60;;
41309;SDS011;27057;51.438;-0.010;2023-03-01T04:13:51;10.68;;;3.30;;
41309;SDS011;27057;51.438;-0.010;2023-03-01T04:16:19;5.75;;;2.55;;
41309;SDS011;27057;51.438;-0.010;2023-03-01T04:18:47;32.58;;;9.30;;
41309;SDS011;27057;51.438;-0.010;2023-03-01T04:21:15;11.15;;;2.70;;
41309;SDS011;27057;51.438;-0.010;2023-03-01T04:23:43;4.38;;;2.72;;
41309;SDS011;27057;51.438;-0.010;2023-03-01T04:26:11;9.65;;;2.88;;
41309;SDS011;27057;51.438;-0.010;2023-03-01T04:28:39;10.65;;;2.45;;
41309;SDS011;27057;51.438;-0.010;2023-03-01T04:31:10;7.68;;;2.50;;
41309;SDS011;27057;51.438;-0.010;2023-03-01T04:33:51;4.03;;;2.33;;
41309;SDS011;27057;51.438;-0.010;2023-03-01T04:36:24;4.28;;;2.72;;
41309;SDS011;27057;51.438;-0.010;2023-03-01T04:38:52;13.07;;;3.35;;
41309;SDS011;27057;51.438;-0.010;2023-03-01T04:41:21;8.80;;;2.65;;
41309;SDS011;27057;51.438;-0.010;2023-03-01T04:43:50;5.35;;;2.40;;
41309;SDS011;27057;51.438;-0.010;2023-03-01T04:46:18;7.88;;;2.22;;
41309;SDS011;27057;51.438;-0.010;2023-03-01T04:48:47;7.80;;;2.40;;
41309;SDS011;27057;51.438;-0.010;2023-03-01T04:51:16;6.85;;;2.70;;
41309;SDS011;27057;51.438;-0.010;2023-03-01T04:53:45;4.13;;;2.25;;
41309;SDS011;27057;51.438;-0.010;2023-03-01T04:56:12;5.63;;;1.95;;
41309;SDS011;27057;51.438;-0.010;2023-03-01T04:58:40;7.97;;;1.95;;
41309;SDS011;27057;51.438;-0.010;2023-03-01T05:01:11;5.63;;;2.33;;
41309;SDS011;27057;51.438;-0.010;2023-03-01T05:03:43;3.47;;;2.10;;
41309;SDS011;27057;51.438;-0.010;2023-03-01T05:06:12;9.40;;;2.47;;
41309;SDS011;27057;51.438;-0.010;2023-03-01T05:08:40;4.80;;;2.30;;
41309;SDS011;27057;51.438;-0.010;2023-03-01T05:11:08;5.47;;;1.92;;
41309;SDS011;27057;51.438;-0.010;2023-03-01T05:13:36;7.70;;;2.35;;
41309;SDS011;27057;51.438;-0.010;2023-03-01T05:16:05;5.28;;;2.25;;
41309;SDS011;27057;51.438;-0.010;2023-03-01T05:18:33;3.05;;;1.80;;
41309;SDS011;27057;51.438;-0.010;2023-03-01T05:21:02;3.25;;;2.00;;
41309;SDS011;27057;51.438;-0.010;2023-03-01T05:23:35;2.97;;;2.13;;
41309;SDS011;27057;51.438;-0.010;2023-03-01T05:26:03;6.47;;;1.75;;
41309;SDS011;27057;51.438;-0.010;2023-03-01T05:28:33;7.55;;;2.40;;
41309;SDS011;27057;51.438;-0.010;2023-03-01T05:31:01;3.85;;;2.38;;
41309;SDS011;27057;51.438;-0.010;2023-03-01T05:33:29;4.82;;;2.42;;
41309;SDS011;27057;51.438;-0.010;2023-03-01T05:35:59;5.22;;;2.20;;
41309;SDS011;27057;51.438;-0.010;2023-03-01T05:38:26;3.63;;;1.90;;
41309;SDS011;27057;51.438;-0.010;2023-03-01T05:40:54;5.68;;;1.55;;
41309;SDS011;27057;51.438;-0.010;2023-03-01T05:43:21;2.88;;;2.28;;
41309;SDS011;27057;51.438;-0.010;2023-03-01T05:45:49;3.20;;;2.20;;
41309;SDS011;27057;51.438;-0.010;2023-03-01T05:48:16;13.20;;;3.25;;
41309;SDS011;27057;51.438;-0.010;2023-03-01T05:50:46;3.90;;;2.17;;
41309;SDS011;27057;51.438;-0.010;2023-03-01T05:53:18;6.20;;;2.28;;
41309;SDS011;27057;51.438;-0.010;2023-03-01T05:55:48;4.32;;;2.55;;
41309;SDS011;27057;51.438;-0.010;2023-03-01T05:58:17;11.30;;;3.00;;
41309;SDS011;27057;51.438;-0.010;2023-03-01T06:00:46;4.43;;;2.83;;
41309;SDS011;27057;51.438;-0.010;2023-03-01T06:03:16;8.52;;;3.25;;
41309;SDS011;27057;51.438;-0.010;2023-03-01T06:05:44;12.00;;;3.40;;
41309;SDS011;27057;51.438;-0.010;2023-03-01T06:08:11;7.80;;;3.15;;
41309;SDS011;27057;51.438;-0.010;2023-03-01T06:10:39;5.68;;;3.40;;
41309;SDS011;27057;51.438;-0.010;2023-03-01T06:13:07;7.50;;;3.47;;
41309;SDS011;27057;51.438;-0.010;2023-03-01T06:15:35;13.25;;;2.95;;
41309;SDS011;27057;51.438;-0.010;2023-03-01T06:18:02;4.85;;;3.08;;
41309;SDS011;27057;51.438;-0.010;2023-03-01T06:20:29;8.60;;;3.70;;
41309;SDS011;27057;51.438;-0.010;2023-03-01T06:22:57;8.52;;;3.17;;
41309;SDS011;27057;51.438;-0.010;2023-03-01T06:25:26;6.00;;;3.42;;
41309;SDS011;27057;51.438;-0.010;2023-03-01T06:27:55;7.95;;;3.05;;
41309;SDS011;27057;51.438;-0.010;2023-03-01T06:30:23;7.65;;;3.53;;
41309;SDS011;27057;51.438;-0.010;2023-03-01T06:32:52;6.68;;;3.53;;
41309;SDS011;27057;51.438;-0.010;2023-03-01T06:35:28;7.15;;;3.58;;
41309;SDS011;27057;51.438;-0.010;2023-03-01T06:37:57;8.85;;;3.38;;
41309;SDS011;27057;51.438;-0.010;2023-03-01T06:40:26;11.73;;;3.92;;
41309;SDS011;27057;51.438;-0.010;2023-03-01T06:42:54;7.13;;;4.00;;
41309;SDS011;27057;51.438;-0.010;2023-03-01T06:45:22;9.73;;;3.47;;
41309;SDS011;27057;51.438;-0.010;2023-03-01T06:47:50;10.95;;;3.55;;
41309;SDS011;27057;51.438;-0.010;2023-03-01T06:50:17;5.47;;;3.30;;
41309;SDS011;27057;51.438;-0.010;2023-03-01T06:52:45;7.55;;;3.03;;
41309;SDS011;27057;51.438;-0.010;2023-03-01T07:00:07;5.00;;;2.92;;
41309;SDS011;27057;51.438;-0.010;2023-03-01T07:02:35;8.10;;;3.03;;
41309;SDS011;27057;51.438;-0.010;2023-03-01T07:05:02;5.60;;;2.67;;
41309;SDS011;27057;51.438;-0.010;2023-03-01T07:07:30;9.73;;;3.35;;
41309;SDS011;27057;51.438;-0.010;2023-03-01T07:09:57;8.15;;;3.40;;
41309;SDS011;27057;51.438;-0.010;2023-03-01T07:12:25;6.88;;;3.00;;
41309;SDS011;27057;51.438;-0.010;2023-03-01T07:14:52;5.28;;;2.85;;
41309;SDS011;27057;51.438;-0.010;2023-03-01T07:17:20;5.57;;;2.40;;
41309;SDS011;27057;51.438;-0.010;2023-03-01T07:19:47;5.32;;;2.58;;
41309;SDS011;27057;51.438;-0.010;2023-03-01T07:22:14;5.07;;;2.85;;
41309;SDS011;27057;51.438;-0.010;2023-03-01T07:24:42;8.77;;;3.10;;
41309;SDS011;27057;51.438;-0.010;2023-03-01T07:27:10;4.97;;;2.72;;
41309;SDS011;27057;51.438;-0.010;2023-03-01T07:29:38;13.70;;;3.20;;
41309;SDS011;27057;51.438;-0.010;2023-03-01T07:32:06;4.65;;;2.92;;
41309;SDS011;27057;51.438;-0.010;2023-03-01T07:34:34;14.68;;;3.13;;
41309;SDS011;27057;51.438;-0.010;2023-03-01T07:37:02;7.97;;;4.00;;
41309;SDS011;27057;51.438;-0.010;2023-03-01T07:39:29;7.75;;;3.00;;
41309;SDS011;27057;51.438;-0.010;2023-03-01T07:41:57;9.40;;;3.67;;
41309;SDS011;27057;51.438;-0.010;2023-03-01T07:44:25;8.20;;;3.58;;
41309;SDS011;27057;51.438;-0.010;2023-03-01T07:46:53;4.18;;;3.03;;
41309;SDS011;27057;51.438;-0.010;2023-03-01T07:49:23;9.82;;;3.25;;
41309;SDS011;27057;51.438;-0.010;2023-03-01T07:51:51;9.27;;;4.15;;
41309;SDS011;27057;51.438;-0.010;2023-03-01T07:54:18;5.80;;;3.20;;
41309;SDS011;27057;51.438;-0.010;2023-03-01T07:56:46;14.23;;;4.25;;
41309;SDS011;27057;51.438;-0.010;2023-03-01T07:59:13;10.27;;;3.33;;
41309;SDS011;27057;51.438;-0.010;2023-03-01T08:01:41;5.82;;;3.20;;
41309;SDS011;27057;51.438;-0.010;2023-03-01T08:04:08;12.65;;;4.00;;
41309;SDS011;27057;51.438;-0.010;2023-03-01T08:06:36;13.35;;;2.90;;
41309;SDS011;27057;51.438;-0.010;2023-03-01T08:09:04;7.68;;;3.33;;
41309;SDS011;27057;51.438;-0.010;2023-03-01T08:11:31;6.88;;;3.05;;
41309;SDS011;27057;51.438;-0.010;2023-03-01T08:13:59;7.40;;;3.15;;
41309;SDS011;27057;51.438;-0.010;2023-03-01T08:16:26;10.27;;;4.45;;
41309;SDS011;27057;51.438;-0.010;2023-03-01T08:18:54;6.82;;;2.88;;
41309;SDS011;27057;51.438;-0.010;2023-03-01T08:21:23;13.75;;;3.33;;
41309;SDS011;27057;51.438;-0.010;2023-03-01T08:23:50;5.10;;;2.63;;
41309;SDS011;27057;51.438;-0.010;2023-03-01T08:26:19;11.45;;;3.08;;
41309;SDS011;27057;51.438;-0.010;2023-03-01T08:28:48;7.57;;;2.58;;
41309;SDS011;27057;51.438;-0.010;2023-03-01T08:31:20;15.05;;;3.53;;
41309;SDS011;27057;51.438;-0.010;2023-03-01T08:33:59;8.48;;;3.08;;
41309;SDS011;27057;51.438;-0.010;2023-03-01T08:36:29;9.15;;;2.60;;
41309;SDS011;27057;51.438;-0.010;2023-03-01T08:38:58;7.28;;;2.45;;
41309;SDS011;27057;51.438;-0.010;2023-03-01T08:41:26;12.32;;;2.42;;
41309;SDS011;27057;51.438;-0.010;2023-03-01T08:43:54;6.13;;;2.22;;
41309;SDS011;27057;51.438;-0.010;2023-03-01T08:46:26;10.68;;;2.53;;
41309;SDS011;27057;51.438;-0.010;2023-03-01T08:48:55;8.25;;;2.67;;
41309;SDS011;27057;51.438;-0.010;2023-03-01T08:51:23;4.47;;;2.35;;
41309;SDS011;27057;51.438;-0.010;2023-03-01T08:53:52;9.20;;;2.25;;
41309;SDS011;27057;51.438;-0.010;2023-03-01T08:56:19;7.18;;;2.53;;
41309;SDS011;27057;51.438;-0.010;2023-03-01T08:58:47;3.60;;;2.33;;
41309;SDS011;27057;51.438;-0.010;2023-03-01T09:01:16;8.75;;;2.60;;
41309;SDS011;27057;51.438;-0.010;2023-03-01T09:03:45;8.07;;;2.30;;
41309;SDS011;27057;51.438;-0.010;2023-03-01T09:06:14;3.95;;;2.08;;
41309;SDS011;27057;51.438;-0.010;2023-03-01T09:08:43;4.05;;;2.00;;
41309;SDS011;27057;51.438;-0.010;2023-03-01T09:11:13;6.20;;;3.10;;
41309;SDS011;27057;51.438;-0.010;2023-03-01T09:13:46;11.10;;;2.35;;
41309;SDS011;27057;51.438;-0.010;2023-03-01T09:16:16;8.55;;;2.50;;
41309;SDS011;27057;51.438;-0.010;2023-03-01T09:18:48;5.55;;;2.40;;
41309;SDS011;27057;51.438;-0.010;2023-03-01T09:21:18;8.82;;;2.53;;
41309;SDS011;27057;51.438;-0.010;2023-03-01T09:24:05;9.63;;;2.05;;
41309;SDS011;27057;51.438;-0.010;2023-03-01T09:26:33;6.43;;;2.90;;
41309;SDS011;27057;51.438;-0.010;2023-03-01T09:29:01;4.00;;;2.05;;
41309;SDS011;27057;51.438;-0.010;2023-03-01T09:31:28;4.22;;;2.33;;
41309;SDS011;27057;51.438;-0.010;2023-03-01T09:33:55;4.75;;;2.25;;
41309;SDS011;27057;51.438;-0.010;2023-03-01T09:36:23;8.70;;;2.00;;
41309;SDS011;27057;51.438;-0.010;2023-03-01T09:38:54;7.20;;;2.13;;
41309;SDS011;27057;51.438;-0.010;2023-03-01T09:47:04;4.80;;;2.35;;
41309;SDS011;27057;51.438;-0.010;2023-03-01T09:49:39;10.95;;;2.70;;
41309;SDS011;27057;51.438;-0.010;2023-03-01T09:52:30;13.13;;;2.47;;
41309;SDS011;27057;51.438;-0.010;2023-03-01T09:55:15;4.93;;;2.28;;
41309;SDS011;27057;51.438;-0.010;2023-03-01T09:57:48;10.68;;;2.70;;
41309;SDS011;27057;51.438;-0.010;2023-03-01T10:00:33;11.65;;;2.50;;
41309;SDS011;27057;51.438;-0.010;2023-03-01T10:08:33;4.15;;;2.30;;
41309;SDS011;27057;51.438;-0.010;2023-03-01T10:11:19;7.72;;;2.95;;
41309;SDS011;27057;51.438;-0.010;2023-03-01T10:17:12;7.30;;;2.40;;
41309;SDS011;27057;51.438;-0.010;2023-03-01T10:20:16;6.53;;;1.83;;
41309;SDS011;27057;51.438;-0.010;2023-03-01T10:22:44;2.95;;;1.92;;
41309;SDS011;27057;51.438;-0.010;2023-03-01T10:28:02;2.70;;;1.60;;
41309;SDS011;27057;51.438;-0.010;2023-03-01T10:30:38;3.55;;;1.30;;
41309;SDS011;27057;51.438;-0.010;2023-03-01T10:33:30;3.15;;;1.33;;
41309;SDS011;27057;51.438;-0.010;2023-03-01T10:35:59;0.82;;;0.80;;
41309;SDS011;27057;51.438;-0.010;2023-03-01T10:38:27;6.88;;;1.25;;
41309;SDS011;27057;51.438;-0.010;2023-03-01T10:41:06;6.93;;;1.30;;
41309;SDS011;27057;51.438;-0.010;2023-03-01T10:46:24;3.75;;;1.08;;
41309;SDS011;27057;51.438;-0.010;2023-03-01T10:51:42;2.05;;;0.90;;
41309;SDS011;27057;51.438;-0.010;2023-03-01T10:54:22;2.25;;;0.68;;
41309;SDS011;27057;51.438;-0.010;2023-03-01T10:56:55;4.50;;;0.82;;
41309;SDS011;27057;51.438;-0.010;2023-03-01T10:59:32;1.17;;;0.85;;
41309;SDS011;27057;51.438;-0.010;2023-03-01T11:02:23;6.88;;;0.85;;
41309;SDS011;27057;51.438;-0.010;2023-03-01T11:05:03;3.78;;;0.88;;
41309;SDS011;27057;51.438;-0.010;2023-03-01T11:07:50;24.65;;;1.08;;
41309;SDS011;27057;51.438;-0.010;2023-03-01T11:10:20;2.70;;;0.98;;
41309;SDS011;27057;51.438;-0.010;2023-03-01T11:12:51;1.35;;;0.85;;
41309;SDS011;27057;51.438;-0.010;2023-03-01T11:15:28;2.20;;;1.02;;
41309;SDS011;27057;51.438;-0.010;2023-03-01T11:17:57;7.10;;;1.20;;
41309;SDS011;27057;51.438;-0.010;2023-03-01T11:20:39;6.30;;;1.20;;
41309;SDS011;27057;51.438;-0.010;2023-03-01T11:23:13;2.80;;;1.65;;
41309;SDS011;27057;51.438;-0.010;2023-03-01T11:25:43;4.38;;;1.02;;
41309;SDS011;27057;51.438;-0.010;2023-03-01T11:28:18;3.37;;;1.43;;
41309;SDS011;27057;51.438;-0.010;2023-03-01T11:30:50;2.10;;;0.98;;
41309;SDS011;27057;51.438;-0.010;2023-03-01T11:33:39;6.13;;;1.23;;
41309;SDS011;27057;51.438;-0.010;2023-03-01T11:42:02;11.23;;;1.52;;
41309;SDS011;27057;51.438;-0.010;2023-03-01T11:44:46;4.30;;;1.38;;
41309;SDS011;27057;51.438;-0.010;2023-03-01T11:52:40;9.02;;;2.40;;
41309;SDS011;27057;51.438;-0.010;2023-03-01T11:55:36;4.55;;;1.35;;
41309;SDS011;27057;51.438;-0.010;2023-03-01T12:06:50;5.97;;;1.98;;
41309;SDS011;27057;51.438;-0.010;2023-03-01T12:29:42;15.93;;;2.00;;
41309;SDS011;27057;51.438;-0.010;2023-03-01T12:33:05;5.35;;;2.15;;
41309;SDS011;27057;51.438;-0.010;2023-03-01T12:35:25;5.65;;;1.67;;
41309;SDS011;27057;51.438;-0.010;2023-03-01T12:46:36;5.50;;;2.03;;
41309;SDS011;27057;51.438;-0.010;2023-03-01T12:52:34;4.60;;;1.70;;
41309;SDS011;27057;51.438;-0.010;2023-03-01T12:58:23;4.45;;;2.10;;
41309;SDS011;27057;51.438;-0.010;2023-03-01T13:01:28;3.00;;;1.88;;
41309;SDS011;27057;51.438;-0.010;2023-03-01T13:04:13;3.72;;;1.75;;
41309;SDS011;27057;51.438;-0.010;2023-03-01T13:06:55;3.47;;;1.67;;
41309;SDS011;27057;51.438;-0.010;2023-03-01T13:09:41;10.45;;;2.17;;
41309;SDS011;27057;51.438;-0.010;2023-03-01T13:18:03;11.38;;;2.30;;
41309;SDS011;27057;51.438;-0.010;2023-03-01T13:26:00;9.18;;;2.05;;
41309;SDS011;27057;51.438;-0.010;2023-03-01T13:33:43;4.57;;;1.70;;
41309;SDS011;27057;51.438;-0.010;2023-03-01T13:41:55;2.75;;;1.42;;
41309;SDS011;27057;51.438;-0.010;2023-03-01T13:44:25;6.70;;;1.70;;
41309;SDS011;27057;51.438;-0.010;2023-03-01T13:46:58;8.63;;;1.80;;
41309;SDS011;27057;51.438;-0.010;2023-03-01T13:49:28;6.45;;;2.00;;
41309;SDS011;27057;51.438;-0.010;2023-03-01T13:57:49;7.50;;;2.97;;
41309;SDS011;27057;51.438;-0.010;2023-03-01T14:00:30;7.43;;;2.22;;
41309;SDS011;27057;51.438;-0.010;2023-03-01T14:03:03;10.23;;;2.10;;
41309;SDS011;27057;51.438;-0.010;2023-03-01T14:05:34;14.35;;;3.55;;
41309;SDS011;27057;51.438;-0.010;2023-03-01T14:08:23;6.57;;;1.88;;
41309;SDS011;27057;51.438;-0.010;2023-03-01T14:14:00;12.32;;;3.10;;
41309;SDS011;27057;51.438;-0.010;2023-03-01T14:19:26;13.18;;;2.38;;
41309;SDS011;27057;51.438;-0.010;2023-03-01T14:24:31;10.43;;;3.20;;
41309;SDS011;27057;51.438;-0.010;2023-03-01T14:27:03;10.48;;;2.30;;
41309;SDS011;27057;51.438;-0.010;2023-03-01T14:29:36;5.95;;;1.33;;
41309;SDS011;27057;51.438;-0.010;2023-03-01T14:32:09;5.47;;;1.85;;
41309;SDS011;27057;51.438;-0.010;2023-03-01T14:34:46;5.45;;;1.58;;
41309;SDS011;27057;51.438;-0.010;2023-03-01T14:37:25;9.80;;;1.65;;
41309;SDS011;27057;51.438;-0.010;2023-03-01T14:39:55;7.35;;;1.73;;
41309;SDS011;27057;51.438;-0.010;2023-03-01T14:42:23;5.80;;;1.75;;
41309;SDS011;27057;51.438;-0.010;2023-03-01T14:44:55;5.95;;;1.80;;
41309;SDS011;27057;51.438;-0.010;2023-03-01T14:47:31;24.75;;;3.03;;
41309;SDS011;27057;51.438;-0.010;2023-03-01T14:50:22;17.80;;;2.78;;
41309;SDS011;27057;51.438;-0.010;2023-03-01T14:52:58;4.72;;;1.92;;
41309;SDS011;27057;51.438;-0.010;2023-03-01T14:55:30;3.47;;;2.00;;
41309;SDS011;27057;51.438;-0.010;2023-03-01T14:58:05;5.03;;;2.05;;
41309;SDS011;27057;51.438;-0.010;2023-03-01T15:00:36;8.93;;;2.05;;
41309;SDS011;27057;51.438;-0.010;2023-03-01T15:03:07;3.17;;;1.38;;
41309;SDS011;27057;51.438;-0.010;2023-03-01T15:05:41;1.93;;;1.07;;
41309;SDS011;27057;51.438;-0.010;2023-03-01T15:08:21;8.27;;;1.55;;
41309;SDS011;27057;51.438;-0.010;2023-03-01T15:10:58;11.30;;;1.67;;
41309;SDS011;27057;51.438;-0.010;2023-03-01T15:13:33;5.57;;;1.48;;
41309;SDS011;27057;51.438;-0.010;2023-03-01T15:16:03;8.57;;;1.73;;
41309;SDS011;27057;51.438;-0.010;2023-03-01T15:18:36;4.00;;;1.55;;
41309;SDS011;27057;51.438;-0.010;2023-03-01T15:21:09;5.25;;;1.45;;
41309;SDS011;27057;51.438;-0.010;2023-03-01T15:23:47;5.85;;;1.75;;
41309;SDS011;27057;51.438;-0.010;2023-03-01T15:28:53;4.05;;;1.30;;
41309;SDS011;27057;51.438;-0.010;2023-03-01T15:31:28;4.18;;;1.58;;
41309;SDS011;27057;51.438;-0.010;2023-03-01T15:34:09;5.95;;;1.77;;
41309;SDS011;27057;51.438;-0.010;2023-03-01T15:36:51;5.90;;;1.58;;
41309;SDS011;27057;51.438;-0.010;2023-03-01T15:40:03;4.88;;;1.23;;
41309;SDS011;27057;51.438;-0.010;2023-03-01T15:45:10;7.68;;;2.00;;
41309;SDS011;27057;51.438;-0.010;2023-03-01T15:47:47;13.30;;;2.10;;
41309;SDS011;27057;51.438;-0.010;2023-03-01T15:52:52;8.13;;;2.13;;
41309;SDS011;27057;51.438;-0.010;2023-03-01T15:55:23;18.65;;;2.75;;
41309;SDS011;27057;51.438;-0.010;2023-03-01T15:58:00;5.00;;;2.05;;
41309;SDS011;27057;51.438;-0.010;2023-03-01T16:00:39;13.88;;;2.58;;
41309;SDS011;27057;51.438;-0.010;2023-03-01T16:03:25;4.45;;;1.60;;
41309;SDS011;27057;51.438;-0.010;2023-03-01T16:05:53;3.25;;;1.65;;
41309;SDS011;27057;51.438;-0.010;2023-03-01T16:08:20;16.48;;;2.30;;
41309;SDS011;27057;51.438;-0.010;2023-03-01T16:10:49;8.77;;;1.70;;
41309;SDS011;27057;51.438;-0.010;2023-03-01T16:13:18;6.38;;;1.70;;
41309;SDS011;27057;51.438;-0.010;2023-03-01T16:15:46;4.90;;;1.75;;
41309;SDS011;27057;51.438;-0.010;2023-03-01T16:18:14;3.40;;;1.48;;
41309;SDS011;27057;51.438;-0.010;2023-03-01T16:20:41;5.03;;;1.80;;
41309;SDS011;27057;51.438;-0.010;2023-03-01T16:23:10;10.95;;;1.80;;
41309;SDS011;27057;51.438;-0.010;2023-03-01T16:25:38;17.45;;;2.05;;
41309;SDS011;27057;51.438;-0.010;2023-03-01T16:28:06;6.20;;;2.38;;
41309;SDS011;27057;51.438;-0.010;2023-03-01T16:30:37;6.80;;;2.50;;
41309;SDS011;27057;51.438;-0.010;2023-03-01T16:33:06;13.07;;;3.60;;
41309;SDS011;27057;51.438;-0.010;2023-03-01T16:35:55;9.63;;;2.17;;
41309;SDS011;27057;51.438;-0.010;2023-03-01T16:38:23;5.72;;;2.00;;
41309;SDS011;27057;51.438;-0.010;2023-03-01T16:40:51;8.90;;;2.00;;
41309;SDS011;27057;51.438;-0.010;2023-03-01T16:43:19;3.03;;;1.58;;
41309;SDS011;27057;51.438;-0.010;2023-03-01T16:45:46;4.05;;;1.75;;
41309;SDS011;27057;51.438;-0.010;2023-03-01T16:48:14;7.75;;;1.80;;
41309;SDS011;27057;51.438;-0.010;2023-03-01T16:50:42;14.35;;;3.10;;
41309;SDS011;27057;51.438;-0.010;2023-03-01T16:53:09;13.00;;;5.65;;
41309;SDS011;27057;51.438;-0.010;2023-03-01T16:55:37;8.57;;;2.65;;
41309;SDS011;27057;51.438;-0.010;2023-03-01T16:58:12;11.95;;;2.70;;
41309;SDS011;27057;51.438;-0.010;2023-03-01T17:00:42;7.95;;;2.78;;
41309;SDS011;27057;51.438;-0.010;2023-03-01T17:03:09;7.45;;;2.40;;
41309;SDS011;27057;51.438;-0.010;2023-03-01T17:05:39;8.73;;;2.60;;
41309;SDS011;27057;51.438;-0.010;2023-03-01T17:08:07;18.77;;;2.83;;
41309;SDS011;27057;51.438;-0.010;2023-03-01T17:10:34;7.20;;;2.05;;